sensor_id;sensor_type;location;lat;lon;timestamp;temperature;humidity
29211;DHT22;16250;49.932;10.980;2022-11-06T00:01:49;5.80;99.90
29211;DHT22;16250;49.932;10.980;2022-11-06T00:04:14;5.70;99.90
29211;DHT22;16250;49.932;10.980;2022-11-06T00:06:40;5.70;99.90
29211;DHT22;16250;49.932;10.980;2022-11-06T00:09:19;5.60;99.90
29211;DHT22;16250;49.932;10.980;2022-11-06T00:11:45;5.70;99.90
29211;DHT22;16250;49.932;10.980;2022-11-06T00:14:11;5.70;99.90
29211;DHT22;16250;49.932;10.980;2022-11-06T00:16:38;5.60;99.90
29211;DHT22;16250;49.932;10.980;2022-11-06T00:19:05;5.70;99.90
29211;DHT22;16250;49.932;10.980;2022-11-06T00:21:31;5.70;99.90
29211;DHT22;16250;49.932;10.980;2022-11-06T00:23:59;5.70;99.90
29211;DHT22;16250;49.932;10.980;2022-11-06T00:26:26;5.70;99.90
29211;DHT22;16250;49.932;10.980;2022-11-06T00:28:53;5.60;99.90
29211;DHT22;16250;49.932;10.980;2022-11-06T00:31:24;5.60;99.90
29211;DHT22;16250;49.932;10.980;2022-11-06T00:33:51;5.60;99.90
29211;DHT22;16250;49.932;10.980;2022-11-06T00:36:19;5.40;99.90
29211;DHT22;16250;49.932;10.980;2022-11-06T00:38:45;5.40;99.90
29211;DHT22;16250;49.932;10.980;2022-11-06T00:41:13;5.40;99.90
29211;DHT22;16250;49.932;10.980;2022-11-06T00:43:39;5.40;99.90
29211;DHT22;16250;49.932;10.980;2022-11-06T00:46:07;5.40;99.90
29211;DHT22;16250;49.932;10.980;2022-11-06T00:48:34;5.40;99.90
29211;DHT22;16250;49.932;10.980;2022-11-06T00:53:34;5.40;99.90
29211;DHT22;16250;49.932;10.980;2022-11-06T00:56:14;5.40;99.90
29211;DHT22;16250;49.932;10.980;2022-11-06T00:58:40;5.40;99.90
29211;DHT22;16250;49.932;10.980;2022-11-06T01:01:26;5.40;99.90
29211;DHT22;16250;49.932;10.980;2022-11-06T01:03:59;5.40;99.90
29211;DHT22;16250;49.932;10.980;2022-11-06T01:06:28;5.40;99.90
29211;DHT22;16250;49.932;10.980;2022-11-06T01:08:54;5.30;99.90
29211;DHT22;16250;49.932;10.980;2022-11-06T01:11:30;5.40;99.90
29211;DHT22;16250;49.932;10.980;2022-11-06T01:13:58;5.30;99.90
29211;DHT22;16250;49.932;10.980;2022-11-06T01:16:24;5.10;99.90
29211;DHT22;16250;49.932;10.980;2022-11-06T01:18:51;5.10;99.90
29211;DHT22;16250;49.932;10.980;2022-11-06T01:21:19;5.00;99.90
29211;DHT22;16250;49.932;10.980;2022-11-06T01:23:46;5.00;99.90
29211;DHT22;16250;49.932;10.980;2022-11-06T01:26:16;5.00;99.90
29211;DHT22;16250;49.932;10.980;2022-11-06T01:28:41;4.80;99.90
29211;DHT22;16250;49.932;10.980;2022-11-06T01:31:20;4.70;99.90
29211;DHT22;16250;49.932;10.980;2022-11-06T01:33:46;4.70;99.90
29211;DHT22;16250;49.932;10.980;2022-11-06T01:36:14;4.70;99.90
29211;DHT22;16250;49.932;10.980;2022-11-06T01:38:41;4.90;99.90
29211;DHT22;16250;49.932;10.980;2022-11-06T01:41:07;4.90;99.90
29211;DHT22;16250;49.932;10.980;2022-11-06T01:43:52;4.80;99.90
29211;DHT22;16250;49.932;10.980;2022-11-06T01:46:21;4.90;99.90
29211;DHT22;16250;49.932;10.980;2022-11-06T01:51:26;4.90;99.90
29211;DHT22;16250;49.932;10.980;2022-11-06T01:53:53;4.80;99.90
29211;DHT22;16250;49.932;10.980;2022-11-06T01:56:20;4.80;99.90
29211;DHT22;16250;49.932;10.980;2022-11-06T01:58:48;4.80;99.90
29211;DHT22;16250;49.932;10.980;2022-11-06T02:01:15;4.80;99.90
29211;DHT22;16250;49.932;10.980;2022-11-06T02:03:50;4.70;99.90
29211;DHT22;16250;49.932;10.980;2022-11-06T02:06:20;4.40;99.90
29211;DHT22;16250;49.932;10.980;2022-11-06T02:08:46;4.10;99.90
29211;DHT22;16250;49.932;10.980;2022-11-06T02:11:12;4.20;99.90
29211;DHT22;16250;49.932;10.980;2022-11-06T02:16:18;4.40;99.90
29211;DHT22;16250;49.932;10.980;2022-11-06T02:19:09;4.30;99.90
29211;DHT22;16250;49.932;10.980;2022-11-06T02:24:29;4.00;99.90
29211;DHT22;16250;49.932;10.980;2022-11-06T02:27:09;4.00;99.90
29211;DHT22;16250;49.932;10.980;2022-11-06T02:32:09;3.80;99.90
29211;DHT22;16250;49.932;10.980;2022-11-06T02:34:36;3.90;99.90
29211;DHT22;16250;49.932;10.980;2022-11-06T02:37:12;3.70;99.90
29211;DHT22;16250;49.932;10.980;2022-11-06T02:39:41;3.80;99.90
29211;DHT22;16250;49.932;10.980;2022-11-06T02:42:10;3.90;99.90
29211;DHT22;16250;49.932;10.980;2022-11-06T02:44:38;4.10;99.90
29211;DHT22;16250;49.932;10.980;2022-11-06T02:47:08;4.40;99.90
29211;DHT22;16250;49.932;10.980;2022-11-06T02:52:18;4.50;99.90
29211;DHT22;16250;49.932;10.980;2022-11-06T02:54:51;4.50;99.90
29211;DHT22;16250;49.932;10.980;2022-11-06T02:57:19;4.10;99.90
29211;DHT22;16250;49.932;10.980;2022-11-06T03:02:34;4.00;99.90
29211;DHT22;16250;49.932;10.980;2022-11-06T03:05:08;4.10;99.90
29211;DHT22;16250;49.932;10.980;2022-11-06T03:08:08;4.10;99.90
29211;DHT22;16250;49.932;10.980;2022-11-06T03:10:45;4.00;99.90
29211;DHT22;16250;49.932;10.980;2022-11-06T03:13:21;3.90;99.90
29211;DHT22;16250;49.932;10.980;2022-11-06T03:16:02;4.00;99.90
29211;DHT22;16250;49.932;10.980;2022-11-06T03:18:37;3.90;99.90
29211;DHT22;16250;49.932;10.980;2022-11-06T03:21:10;3.80;99.90
29211;DHT22;16250;49.932;10.980;2022-11-06T03:24:10;4.10;99.90
29211;DHT22;16250;49.932;10.980;2022-11-06T03:26:42;4.30;99.90
29211;DHT22;16250;49.932;10.980;2022-11-06T03:29:24;4.30;99.90
29211;DHT22;16250;49.932;10.980;2022-11-06T03:32:13;4.50;99.90
29211;DHT22;16250;49.932;10.980;2022-11-06T03:34:46;4.50;99.90
29211;DHT22;16250;49.932;10.980;2022-11-06T03:37:16;4.30;99.90
29211;DHT22;16250;49.932;10.980;2022-11-06T03:39:48;4.30;99.90
29211;DHT22;16250;49.932;10.980;2022-11-06T03:42:19;4.40;99.90
29211;DHT22;16250;49.932;10.980;2022-11-06T03:44:48;4.40;99.90
29211;DHT22;16250;49.932;10.980;2022-11-06T03:49:48;4.40;99.90
29211;DHT22;16250;49.932;10.980;2022-11-06T03:52:21;4.30;99.90
29211;DHT22;16250;49.932;10.980;2022-11-06T03:55:15;4.10;99.90
29211;DHT22;16250;49.932;10.980;2022-11-06T03:57:52;4.20;99.90
29211;DHT22;16250;49.932;10.980;2022-11-06T04:00:19;4.30;99.90
29211;DHT22;16250;49.932;10.980;2022-11-06T04:02:52;4.30;99.90
29211;DHT22;16250;49.932;10.980;2022-11-06T04:05:32;4.10;99.90
29211;DHT22;16250;49.932;10.980;2022-11-06T04:07:59;3.80;99.90
29211;DHT22;16250;49.932;10.980;2022-11-06T04:10:47;3.90;99.90
29211;DHT22;16250;49.932;10.980;2022-11-06T04:13:34;3.90;99.90
29211;DHT22;16250;49.932;10.980;2022-11-06T04:16:20;3.80;99.90
29211;DHT22;16250;49.932;10.980;2022-11-06T04:18:45;3.90;99.90
29211;DHT22;16250;49.932;10.980;2022-11-06T04:24:32;4.10;99.90
29211;DHT22;16250;49.932;10.980;2022-11-06T04:35:29;4.10;99.90
29211;DHT22;16250;49.932;10.980;2022-11-06T04:40:56;3.90;99.90
29211;DHT22;16250;49.932;10.980;2022-11-06T04:43:39;3.80;99.90
29211;DHT22;16250;49.932;10.980;2022-11-06T04:46:08;3.80;99.90
29211;DHT22;16250;49.932;10.980;2022-11-06T04:48:36;3.90;99.90
29211;DHT22;16250;49.932;10.980;2022-11-06T04:51:05;3.90;99.90
29211;DHT22;16250;49.932;10.980;2022-11-06T04:53:33;4.00;99.90
29211;DHT22;16250;49.932;10.980;2022-11-06T04:56:06;4.10;99.90
29211;DHT22;16250;49.932;10.980;2022-11-06T04:58:33;4.10;99.90
29211;DHT22;16250;49.932;10.980;2022-11-06T05:00:59;4.00;99.90
29211;DHT22;16250;49.932;10.980;2022-11-06T05:03:24;3.90;99.90
29211;DHT22;16250;49.932;10.980;2022-11-06T05:05:50;3.90;99.90
29211;DHT22;16250;49.932;10.980;2022-11-06T05:08:17;3.90;99.90
29211;DHT22;16250;49.932;10.980;2022-11-06T05:10:44;3.80;99.90
29211;DHT22;16250;49.932;10.980;2022-11-06T05:13:10;3.80;99.90
29211;DHT22;16250;49.932;10.980;2022-11-06T05:15:36;3.90;99.90
29211;DHT22;16250;49.932;10.980;2022-11-06T05:18:01;3.90;99.90
29211;DHT22;16250;49.932;10.980;2022-11-06T05:20:27;3.70;99.90
29211;DHT22;16250;49.932;10.980;2022-11-06T05:22:53;3.70;99.90
29211;DHT22;16250;49.932;10.980;2022-11-06T05:25:31;3.80;99.90
29211;DHT22;16250;49.932;10.980;2022-11-06T05:27:57;3.90;99.90
29211;DHT22;16250;49.932;10.980;2022-11-06T05:30:24;3.90;99.90
29211;DHT22;16250;49.932;10.980;2022-11-06T05:32:50;4.00;99.90
29211;DHT22;16250;49.932;10.980;2022-11-06T05:35:17;4.00;99.90
29211;DHT22;16250;49.932;10.980;2022-11-06T05:37:44;4.00;99.90
29211;DHT22;16250;49.932;10.980;2022-11-06T05:40:10;4.00;99.90
29211;DHT22;16250;49.932;10.980;2022-11-06T05:42:40;4.00;99.90
29211;DHT22;16250;49.932;10.980;2022-11-06T05:45:06;4.10;99.90
29211;DHT22;16250;49.932;10.980;2022-11-06T05:47:33;3.90;99.90
29211;DHT22;16250;49.932;10.980;2022-11-06T05:49:58;3.90;99.90
29211;DHT22;16250;49.932;10.980;2022-11-06T05:52:24;3.90;99.90
29211;DHT22;16250;49.932;10.980;2022-11-06T05:54:50;3.80;99.90
29211;DHT22;16250;49.932;10.980;2022-11-06T05:57:16;3.60;99.90
29211;DHT22;16250;49.932;10.980;2022-11-06T05:59:41;3.50;99.90
29211;DHT22;16250;49.932;10.980;2022-11-06T06:02:07;3.50;99.90
29211;DHT22;16250;49.932;10.980;2022-11-06T06:04:32;3.30;99.90
29211;DHT22;16250;49.932;10.980;2022-11-06T06:06:58;3.10;99.90
29211;DHT22;16250;49.932;10.980;2022-11-06T06:09:24;3.20;99.90
29211;DHT22;16250;49.932;10.980;2022-11-06T06:11:50;3.10;99.90
29211;DHT22;16250;49.932;10.980;2022-11-06T06:14:17;3.20;99.90
29211;DHT22;16250;49.932;10.980;2022-11-06T06:16:42;3.10;99.90
29211;DHT22;16250;49.932;10.980;2022-11-06T06:19:08;3.10;99.90
29211;DHT22;16250;49.932;10.980;2022-11-06T06:21:33;3.10;99.90
29211;DHT22;16250;49.932;10.980;2022-11-06T06:24:01;3.10;99.90
29211;DHT22;16250;49.932;10.980;2022-11-06T06:26:27;3.10;99.90
29211;DHT22;16250;49.932;10.980;2022-11-06T06:28:52;3.20;99.90
29211;DHT22;16250;49.932;10.980;2022-11-06T06:31:18;3.30;99.90
29211;DHT22;16250;49.932;10.980;2022-11-06T06:33:43;3.30;99.90
29211;DHT22;16250;49.932;10.980;2022-11-06T06:36:09;3.20;99.90
29211;DHT22;16250;49.932;10.980;2022-11-06T06:38:34;3.00;99.90
29211;DHT22;16250;49.932;10.980;2022-11-06T06:41:04;3.00;99.90
29211;DHT22;16250;49.932;10.980;2022-11-06T06:43:30;3.00;99.90
29211;DHT22;16250;49.932;10.980;2022-11-06T06:45:57;2.90;99.90
29211;DHT22;16250;49.932;10.980;2022-11-06T06:48:23;2.70;99.90
29211;DHT22;16250;49.932;10.980;2022-11-06T06:50:49;2.70;99.90
29211;DHT22;16250;49.932;10.980;2022-11-06T06:53:15;2.70;99.90
29211;DHT22;16250;49.932;10.980;2022-11-06T06:55:40;2.80;99.90
29211;DHT22;16250;49.932;10.980;2022-11-06T06:58:06;2.90;99.90
29211;DHT22;16250;49.932;10.980;2022-11-06T07:00:32;2.70;99.90
29211;DHT22;16250;49.932;10.980;2022-11-06T07:02:57;3.00;99.90
29211;DHT22;16250;49.932;10.980;2022-11-06T07:05:23;3.10;99.90
29211;DHT22;16250;49.932;10.980;2022-11-06T07:07:49;3.00;99.90
29211;DHT22;16250;49.932;10.980;2022-11-06T07:10:15;3.00;99.90
29211;DHT22;16250;49.932;10.980;2022-11-06T07:12:40;3.20;99.90
29211;DHT22;16250;49.932;10.980;2022-11-06T07:15:07;3.40;99.90
29211;DHT22;16250;49.932;10.980;2022-11-06T07:17:32;3.50;99.90
29211;DHT22;16250;49.932;10.980;2022-11-06T07:19:58;3.70;99.90
29211;DHT22;16250;49.932;10.980;2022-11-06T07:22:27;3.80;99.90
29211;DHT22;16250;49.932;10.980;2022-11-06T07:24:53;3.90;99.90
29211;DHT22;16250;49.932;10.980;2022-11-06T07:27:18;4.00;99.90
29211;DHT22;16250;49.932;10.980;2022-11-06T07:29:44;4.00;99.90
29211;DHT22;16250;49.932;10.980;2022-11-06T07:32:09;4.00;99.90
29211;DHT22;16250;49.932;10.980;2022-11-06T07:34:35;4.00;99.90
29211;DHT22;16250;49.932;10.980;2022-11-06T07:37:04;4.00;99.90
29211;DHT22;16250;49.932;10.980;2022-11-06T07:39:29;4.10;99.90
29211;DHT22;16250;49.932;10.980;2022-11-06T07:41:55;4.20;99.90
29211;DHT22;16250;49.932;10.980;2022-11-06T07:44:21;4.30;99.90
29211;DHT22;16250;49.932;10.980;2022-11-06T07:46:46;4.30;99.90
29211;DHT22;16250;49.932;10.980;2022-11-06T07:49:12;4.40;99.90
29211;DHT22;16250;49.932;10.980;2022-11-06T07:51:38;4.40;99.90
29211;DHT22;16250;49.932;10.980;2022-11-06T07:54:03;4.40;99.90
29211;DHT22;16250;49.932;10.980;2022-11-06T07:56:29;4.20;99.90
29211;DHT22;16250;49.932;10.980;2022-11-06T07:58:54;4.20;99.90
29211;DHT22;16250;49.932;10.980;2022-11-06T08:01:20;4.20;99.90
29211;DHT22;16250;49.932;10.980;2022-11-06T08:03:45;4.30;99.90
29211;DHT22;16250;49.932;10.980;2022-11-06T08:06:11;4.20;99.90
29211;DHT22;16250;49.932;10.980;2022-11-06T08:08:37;4.30;99.90
29211;DHT22;16250;49.932;10.980;2022-11-06T08:11:08;4.20;99.90
29211;DHT22;16250;49.932;10.980;2022-11-06T08:13:34;4.40;99.90
29211;DHT22;16250;49.932;10.980;2022-11-06T08:16:08;4.50;99.90
29211;DHT22;16250;49.932;10.980;2022-11-06T08:18:34;4.40;99.90
29211;DHT22;16250;49.932;10.980;2022-11-06T08:21:00;4.50;99.90
29211;DHT22;16250;49.932;10.980;2022-11-06T08:23:26;4.60;99.90
29211;DHT22;16250;49.932;10.980;2022-11-06T08:25:55;4.70;99.90
29211;DHT22;16250;49.932;10.980;2022-11-06T08:28:21;4.90;99.90
29211;DHT22;16250;49.932;10.980;2022-11-06T08:30:46;4.90;99.90
29211;DHT22;16250;49.932;10.980;2022-11-06T08:33:12;5.10;99.90
29211;DHT22;16250;49.932;10.980;2022-11-06T08:35:37;5.10;99.90
29211;DHT22;16250;49.932;10.980;2022-11-06T08:38:03;5.00;99.90
29211;DHT22;16250;49.932;10.980;2022-11-06T08:40:29;5.10;99.90
29211;DHT22;16250;49.932;10.980;2022-11-06T08:43:03;5.40;99.90
29211;DHT22;16250;49.932;10.980;2022-11-06T08:45:29;5.40;99.90
29211;DHT22;16250;49.932;10.980;2022-11-06T08:47:59;5.20;99.90
29211;DHT22;16250;49.932;10.980;2022-11-06T08:50:26;5.10;99.90
29211;DHT22;16250;49.932;10.980;2022-11-06T08:52:51;5.20;99.90
29211;DHT22;16250;49.932;10.980;2022-11-06T08:55:17;5.20;99.90
29211;DHT22;16250;49.932;10.980;2022-11-06T08:57:42;5.30;99.90
29211;DHT22;16250;49.932;10.980;2022-11-06T09:00:08;5.50;99.90
29211;DHT22;16250;49.932;10.980;2022-11-06T09:02:34;5.60;99.90
29211;DHT22;16250;49.932;10.980;2022-11-06T09:04:59;5.70;99.90
29211;DHT22;16250;49.932;10.980;2022-11-06T09:07:25;5.70;99.90
29211;DHT22;16250;49.932;10.980;2022-11-06T09:09:50;5.80;99.90
29211;DHT22;16250;49.932;10.980;2022-11-06T09:12:16;5.90;99.90
29211;DHT22;16250;49.932;10.980;2022-11-06T09:14:41;6.00;99.90
29211;DHT22;16250;49.932;10.980;2022-11-06T09:17:07;6.10;99.90
29211;DHT22;16250;49.932;10.980;2022-11-06T09:19:33;6.50;99.90
29211;DHT22;16250;49.932;10.980;2022-11-06T09:21:58;6.60;99.90
29211;DHT22;16250;49.932;10.980;2022-11-06T09:24:24;6.70;99.90
29211;DHT22;16250;49.932;10.980;2022-11-06T09:26:49;6.90;99.90
29211;DHT22;16250;49.932;10.980;2022-11-06T09:29:15;7.00;99.90
29211;DHT22;16250;49.932;10.980;2022-11-06T09:31:41;7.00;99.90
29211;DHT22;16250;49.932;10.980;2022-11-06T09:34:10;7.10;99.90
29211;DHT22;16250;49.932;10.980;2022-11-06T09:36:36;7.20;99.90
29211;DHT22;16250;49.932;10.980;2022-11-06T09:39:02;7.10;99.90
29211;DHT22;16250;49.932;10.980;2022-11-06T09:41:54;7.20;99.90
29211;DHT22;16250;49.932;10.980;2022-11-06T09:46:58;7.20;99.90
29211;DHT22;16250;49.932;10.980;2022-11-06T09:49:37;7.40;99.90
29211;DHT22;16250;49.932;10.980;2022-11-06T09:52:32;7.40;99.90
29211;DHT22;16250;49.932;10.980;2022-11-06T09:55:21;7.50;99.90
29211;DHT22;16250;49.932;10.980;2022-11-06T09:57:56;7.60;99.90
29211;DHT22;16250;49.932;10.980;2022-11-06T10:00:23;7.60;99.90
29211;DHT22;16250;49.932;10.980;2022-11-06T10:03:05;7.60;99.90
29211;DHT22;16250;49.932;10.980;2022-11-06T10:05:36;7.70;99.90
29211;DHT22;16250;49.932;10.980;2022-11-06T10:08:05;7.90;99.90
29211;DHT22;16250;49.932;10.980;2022-11-06T10:13:25;7.70;99.90
29211;DHT22;16250;49.932;10.980;2022-11-06T10:16:06;7.90;99.90
29211;DHT22;16250;49.932;10.980;2022-11-06T10:18:49;8.00;99.90
29211;DHT22;16250;49.932;10.980;2022-11-06T10:21:24;8.20;99.90
29211;DHT22;16250;49.932;10.980;2022-11-06T10:23:56;8.40;99.90
29211;DHT22;16250;49.932;10.980;2022-11-06T10:31:32;8.20;99.90
29211;DHT22;16250;49.932;10.980;2022-11-06T10:34:07;8.50;99.90
29211;DHT22;16250;49.932;10.980;2022-11-06T10:39:31;8.50;99.90
29211;DHT22;16250;49.932;10.980;2022-11-06T10:42:05;8.50;99.90
29211;DHT22;16250;49.932;10.980;2022-11-06T10:44:41;8.40;99.90
29211;DHT22;16250;49.932;10.980;2022-11-06T10:47:19;8.50;99.90
29211;DHT22;16250;49.932;10.980;2022-11-06T10:49:54;8.50;99.90
29211;DHT22;16250;49.932;10.980;2022-11-06T10:52:44;8.70;99.90
29211;DHT22;16250;49.932;10.980;2022-11-06T10:55:40;8.70;99.90
29211;DHT22;16250;49.932;10.980;2022-11-06T10:58:16;8.70;99.90
29211;DHT22;16250;49.932;10.980;2022-11-06T11:00:42;8.80;99.90
29211;DHT22;16250;49.932;10.980;2022-11-06T11:03:30;8.80;99.90
29211;DHT22;16250;49.932;10.980;2022-11-06T11:05:56;8.80;99.90
29211;DHT22;16250;49.932;10.980;2022-11-06T11:08:41;9.10;99.90
29211;DHT22;16250;49.932;10.980;2022-11-06T11:14:28;9.10;99.90
29211;DHT22;16250;49.932;10.980;2022-11-06T11:16:32;9.20;99.90
29211;DHT22;16250;49.932;10.980;2022-11-06T11:19:32;9.00;99.90
29211;DHT22;16250;49.932;10.980;2022-11-06T11:24:28;9.10;99.90
29211;DHT22;16250;49.932;10.980;2022-11-06T11:27:01;9.10;99.90
29211;DHT22;16250;49.932;10.980;2022-11-06T11:29:30;9.20;99.90
29211;DHT22;16250;49.932;10.980;2022-11-06T11:32:01;9.20;99.90
29211;DHT22;16250;49.932;10.980;2022-11-06T11:34:30;9.20;99.90
29211;DHT22;16250;49.932;10.980;2022-11-06T11:37:04;9.10;99.90
29211;DHT22;16250;49.932;10.980;2022-11-06T11:39:40;9.10;99.90
29211;DHT22;16250;49.932;10.980;2022-11-06T11:42:39;9.10;99.90
29211;DHT22;16250;49.932;10.980;2022-11-06T11:47:33;9.20;99.90
29211;DHT22;16250;49.932;10.980;2022-11-06T11:50:27;9.20;99.90
29211;DHT22;16250;49.932;10.980;2022-11-06T11:53:17;9.30;99.90
29211;DHT22;16250;49.932;10.980;2022-11-06T11:55:47;9.40;99.90
29211;DHT22;16250;49.932;10.980;2022-11-06T11:58:17;9.30;99.90
29211;DHT22;16250;49.932;10.980;2022-11-06T12:00:58;9.40;99.90
29211;DHT22;16250;49.932;10.980;2022-11-06T12:03:30;9.30;99.90
29211;DHT22;16250;49.932;10.980;2022-11-06T12:06:08;9.20;99.90
29211;DHT22;16250;49.932;10.980;2022-11-06T12:08:37;9.30;99.90
29211;DHT22;16250;49.932;10.980;2022-11-06T12:11:05;9.40;99.90
29211;DHT22;16250;49.932;10.980;2022-11-06T12:13:31;9.40;99.90
29211;DHT22;16250;49.932;10.980;2022-11-06T12:16:08;9.30;99.90
29211;DHT22;16250;49.932;10.980;2022-11-06T12:18:37;9.40;99.90
29211;DHT22;16250;49.932;10.980;2022-11-06T12:26:36;9.30;99.90
29211;DHT22;16250;49.932;10.980;2022-11-06T12:29:21;9.40;99.90
29211;DHT22;16250;49.932;10.980;2022-11-06T12:35:04;9.30;99.90
29211;DHT22;16250;49.932;10.980;2022-11-06T12:40:18;9.80;99.90
29211;DHT22;16250;49.932;10.980;2022-11-06T12:43:22;9.70;99.90
29211;DHT22;16250;49.932;10.980;2022-11-06T13:00:20;9.40;99.90
29211;DHT22;16250;49.932;10.980;2022-11-06T13:11:51;9.70;99.90
29211;DHT22;16250;49.932;10.980;2022-11-06T13:14:29;9.50;99.90
29211;DHT22;16250;49.932;10.980;2022-11-06T13:20:13;9.30;99.90
29211;DHT22;16250;49.932;10.980;2022-11-06T13:22:52;9.40;99.90
29211;DHT22;16250;49.932;10.980;2022-11-06T13:25:35;9.50;99.90
29211;DHT22;16250;49.932;10.980;2022-11-06T13:28:05;9.50;99.90
29211;DHT22;16250;49.932;10.980;2022-11-06T13:30:33;9.40;99.90
29211;DHT22;16250;49.932;10.980;2022-11-06T13:33:22;9.50;99.90
29211;DHT22;16250;49.932;10.980;2022-11-06T13:35:48;9.50;99.90
29211;DHT22;16250;49.932;10.980;2022-11-06T13:38:20;9.40;99.90
29211;DHT22;16250;49.932;10.980;2022-11-06T13:40:50;9.30;99.90
29211;DHT22;16250;49.932;10.980;2022-11-06T13:48:39;9.40;99.90
29211;DHT22;16250;49.932;10.980;2022-11-06T13:51:29;9.40;99.90
29211;DHT22;16250;49.932;10.980;2022-11-06T13:54:01;9.30;99.90
29211;DHT22;16250;49.932;10.980;2022-11-06T14:02:15;9.20;99.90
29211;DHT22;16250;49.932;10.980;2022-11-06T14:07:47;9.00;99.90
29211;DHT22;16250;49.932;10.980;2022-11-06T14:10:22;9.00;99.90
29211;DHT22;16250;49.932;10.980;2022-11-06T14:12:50;9.00;99.90
29211;DHT22;16250;49.932;10.980;2022-11-06T14:17:54;9.10;99.90
29211;DHT22;16250;49.932;10.980;2022-11-06T14:20:40;9.00;99.90
29211;DHT22;16250;49.932;10.980;2022-11-06T14:26:12;9.00;99.90
29211;DHT22;16250;49.932;10.980;2022-11-06T14:28:43;8.80;99.90
29211;DHT22;16250;49.932;10.980;2022-11-06T14:31:09;8.70;99.90
29211;DHT22;16250;49.932;10.980;2022-11-06T14:36:32;8.50;99.90
29211;DHT22;16250;49.932;10.980;2022-11-06T14:38:58;8.70;99.90
29211;DHT22;16250;49.932;10.980;2022-11-06T14:41:51;8.40;99.90
29211;DHT22;16250;49.932;10.980;2022-11-06T14:44:45;8.40;99.90
29211;DHT22;16250;49.932;10.980;2022-11-06T14:50:08;8.30;99.90
29211;DHT22;16250;49.932;10.980;2022-11-06T14:53:11;8.20;99.90
29211;DHT22;16250;49.932;10.980;2022-11-06T14:55:54;8.20;99.90
29211;DHT22;16250;49.932;10.980;2022-11-06T14:58:23;8.20;99.90
29211;DHT22;16250;49.932;10.980;2022-11-06T15:19:14;8.00;99.90
29211;DHT22;16250;49.932;10.980;2022-11-06T15:21:44;7.80;99.90
29211;DHT22;16250;49.932;10.980;2022-11-06T15:24:18;7.50;99.90
29211;DHT22;16250;49.932;10.980;2022-11-06T15:26:51;7.40;99.90
29211;DHT22;16250;49.932;10.980;2022-11-06T15:29:25;7.30;99.90
29211;DHT22;16250;49.932;10.980;2022-11-06T15:32:23;7.30;99.90
29211;DHT22;16250;49.932;10.980;2022-11-06T15:35:05;7.20;99.90
29211;DHT22;16250;49.932;10.980;2022-11-06T15:37:36;7.10;99.90
29211;DHT22;16250;49.932;10.980;2022-11-06T15:40:03;7.10;99.90
29211;DHT22;16250;49.932;10.980;2022-11-06T15:42:32;7.10;99.90
29211;DHT22;16250;49.932;10.980;2022-11-06T15:45:20;7.10;99.90
29211;DHT22;16250;49.932;10.980;2022-11-06T15:48:21;7.10;99.90
29211;DHT22;16250;49.932;10.980;2022-11-06T15:50:47;7.00;99.90
29211;DHT22;16250;49.932;10.980;2022-11-06T16:00:46;6.80;99.90
29211;DHT22;16250;49.932;10.980;2022-11-06T16:03:14;6.80;99.90
29211;DHT22;16250;49.932;10.980;2022-11-06T16:05:41;6.80;99.90
29211;DHT22;16250;49.932;10.980;2022-11-06T16:08:11;6.70;99.90
29211;DHT22;16250;49.932;10.980;2022-11-06T16:10:38;6.70;99.90
29211;DHT22;16250;49.932;10.980;2022-11-06T16:13:05;6.80;99.90
29211;DHT22;16250;49.932;10.980;2022-11-06T16:15:52;6.70;99.90
29211;DHT22;16250;49.932;10.980;2022-11-06T16:18:39;6.60;99.90
29211;DHT22;16250;49.932;10.980;2022-11-06T16:21:18;6.60;99.90
29211;DHT22;16250;49.932;10.980;2022-11-06T16:23:51;6.60;99.90
29211;DHT22;16250;49.932;10.980;2022-11-06T16:26:44;6.60;99.90
29211;DHT22;16250;49.932;10.980;2022-11-06T16:29:18;6.50;99.90
29211;DHT22;16250;49.932;10.980;2022-11-06T16:31:44;6.40;99.90
29211;DHT22;16250;49.932;10.980;2022-11-06T16:34:32;6.40;99.90
29211;DHT22;16250;49.932;10.980;2022-11-06T16:39:55;6.30;99.90
29211;DHT22;16250;49.932;10.980;2022-11-06T16:42:33;6.30;99.90
29211;DHT22;16250;49.932;10.980;2022-11-06T16:45:18;6.40;99.90
29211;DHT22;16250;49.932;10.980;2022-11-06T16:53:11;6.30;99.90
29211;DHT22;16250;49.932;10.980;2022-11-06T16:55:37;6.30;99.90
29211;DHT22;16250;49.932;10.980;2022-11-06T16:58:03;6.30;99.90
29211;DHT22;16250;49.932;10.980;2022-11-06T17:00:33;6.30;99.90
29211;DHT22;16250;49.932;10.980;2022-11-06T17:03:07;6.20;99.90
29211;DHT22;16250;49.932;10.980;2022-11-06T17:05:54;6.20;99.90
29211;DHT22;16250;49.932;10.980;2022-11-06T17:08:30;6.30;99.90
29211;DHT22;16250;49.932;10.980;2022-11-06T17:11:18;6.40;99.90
29211;DHT22;16250;49.932;10.980;2022-11-06T17:13:48;6.30;99.90
29211;DHT22;16250;49.932;10.980;2022-11-06T17:16:16;6.30;99.90
29211;DHT22;16250;49.932;10.980;2022-11-06T17:18:43;6.30;99.90
29211;DHT22;16250;49.932;10.980;2022-11-06T17:21:15;6.30;99.90
29211;DHT22;16250;49.932;10.980;2022-11-06T17:23:41;6.30;99.90
29211;DHT22;16250;49.932;10.980;2022-11-06T17:28:37;6.20;99.90
29211;DHT22;16250;49.932;10.980;2022-11-06T17:31:03;6.20;99.90
29211;DHT22;16250;49.932;10.980;2022-11-06T17:33:29;6.30;99.90
29211;DHT22;16250;49.932;10.980;2022-11-06T17:35:54;6.20;99.90
29211;DHT22;16250;49.932;10.980;2022-11-06T17:38:20;6.10;99.90
29211;DHT22;16250;49.932;10.980;2022-11-06T17:40:45;6.10;99.90
29211;DHT22;16250;49.932;10.980;2022-11-06T17:43:12;6.20;99.90
29211;DHT22;16250;49.932;10.980;2022-11-06T17:45:39;6.20;99.90
29211;DHT22;16250;49.932;10.980;2022-11-06T17:48:05;6.30;99.90
29211;DHT22;16250;49.932;10.980;2022-11-06T17:50:31;6.20;99.90
29211;DHT22;16250;49.932;10.980;2022-11-06T17:53:16;6.30;99.90
29211;DHT22;16250;49.932;10.980;2022-11-06T17:55:42;6.20;99.90
29211;DHT22;16250;49.932;10.980;2022-11-06T17:58:08;6.20;99.90
29211;DHT22;16250;49.932;10.980;2022-11-06T18:00:33;6.20;99.90
29211;DHT22;16250;49.932;10.980;2022-11-06T18:02:59;6.20;99.90
29211;DHT22;16250;49.932;10.980;2022-11-06T18:05:24;6.20;99.90
29211;DHT22;16250;49.932;10.980;2022-11-06T18:07:50;6.20;99.90
29211;DHT22;16250;49.932;10.980;2022-11-06T18:10:15;6.20;99.90
29211;DHT22;16250;49.932;10.980;2022-11-06T18:12:41;6.00;99.90
29211;DHT22;16250;49.932;10.980;2022-11-06T18:15:07;6.00;99.90
29211;DHT22;16250;49.932;10.980;2022-11-06T18:17:32;6.00;99.90
29211;DHT22;16250;49.932;10.980;2022-11-06T18:19:58;6.10;99.90
29211;DHT22;16250;49.932;10.980;2022-11-06T18:22:23;6.20;99.90
29211;DHT22;16250;49.932;10.980;2022-11-06T18:24:49;6.10;99.90
29211;DHT22;16250;49.932;10.980;2022-11-06T18:27:15;6.20;99.90
29211;DHT22;16250;49.932;10.980;2022-11-06T18:29:40;6.20;99.90
29211;DHT22;16250;49.932;10.980;2022-11-06T18:32:06;6.20;99.90